createdAt,value
2023-01-12T00:01:43.604Z,5.10
2023-01-12T00:04:12.664Z,5.10
2023-01-12T00:06:42.702Z,5.10
2023-01-12T00:09:09.861Z,5.10
2023-01-12T00:11:39.438Z,5.20
2023-01-12T00:14:09.741Z,5.20
2023-01-12T00:16:39.421Z,5.20
2023-01-12T00:19:11.705Z,5.20
2023-01-12T00:21:59.344Z,5.10
2023-01-12T00:24:39.924Z,5.00
2023-01-12T00:27:08.353Z,5.10
2023-01-12T00:29:35.851Z,5.20
2023-01-12T00:32:02.794Z,5.20
2023-01-12T00:34:30.024Z,5.30
2023-01-12T00:36:57.056Z,5.40
2023-01-12T00:39:23.911Z,5.40
2023-01-12T00:42:09.399Z,5.50
2023-01-12T00:44:54.563Z,5.50
2023-01-12T00:47:21.364Z,5.50
2023-01-12T00:49:50.633Z,5.50
2023-01-12T00:52:30.490Z,5.50
2023-01-12T00:54:58.941Z,5.50
2023-01-12T00:57:25.885Z,5.40
2023-01-12T00:59:55.545Z,5.40
2023-01-12T01:02:25.102Z,5.40
2023-01-12T01:04:56.745Z,5.40
2023-01-12T01:07:26.074Z,5.30
2023-01-12T01:09:52.915Z,5.40
2023-01-12T01:12:19.765Z,5.40
2023-01-12T01:14:49.342Z,5.40
2023-01-12T01:17:16.123Z,5.40
2023-01-12T01:19:43.758Z,5.40
2023-01-12T01:22:13.387Z,5.30
2023-01-12T01:24:41.042Z,5.30
2023-01-12T01:27:07.895Z,5.30
2023-01-12T01:29:37.100Z,5.20
2023-01-12T01:32:06.379Z,5.20
2023-01-12T01:34:33.494Z,5.20
2023-01-12T01:37:00.298Z,5.20
2023-01-12T01:39:27.089Z,5.20
2023-01-12T01:41:53.878Z,5.30
2023-01-12T01:44:32.008Z,5.40
2023-01-12T01:47:01.560Z,5.40
2023-01-12T01:49:48.723Z,5.40
2023-01-12T01:52:20.403Z,5.40
2023-01-12T01:55:11.393Z,5.30
2023-01-12T01:57:51.004Z,5.40
2023-01-12T02:00:18.112Z,5.30
2023-01-12T02:02:45.196Z,5.20
2023-01-12T02:05:12.763Z,5.20
2023-01-12T02:07:44.786Z,5.40
2023-01-12T02:10:11.583Z,5.40
2023-01-12T02:12:59.551Z,5.50
2023-01-12T02:15:45.581Z,5.50
2023-01-12T02:18:24.537Z,5.50
2023-01-12T02:21:20.557Z,5.50
2023-01-12T02:24:24.023Z,5.60
2023-01-12T02:27:00.013Z,5.50
2023-01-12T02:29:32.444Z,5.50
2023-01-12T02:32:20.331Z,5.50
2023-01-12T02:35:05.831Z,5.50
2023-01-12T02:38:00.922Z,5.50
2023-01-12T02:40:30.835Z,5.60
2023-01-12T02:43:16.032Z,5.70
2023-01-12T02:46:18.632Z,5.60
2023-01-12T02:48:51.787Z,5.60
2023-01-12T02:51:34.500Z,5.50
2023-01-12T02:54:07.222Z,5.50
2023-01-12T02:56:39.278Z,5.50
2023-01-12T02:59:14.316Z,5.40
2023-01-12T03:01:41.279Z,5.40
2023-01-12T03:04:08.337Z,5.50
2023-01-12T03:06:56.971Z,5.50
2023-01-12T03:09:30.912Z,5.50
2023-01-12T03:12:00.997Z,5.50
2023-01-12T03:14:27.739Z,5.50
2023-01-12T03:16:54.915Z,5.60
2023-01-12T03:19:23.718Z,5.70
2023-01-12T03:22:00.419Z,5.70
2023-01-12T03:24:37.301Z,5.70
2023-01-12T03:27:10.672Z,5.70
2023-01-12T03:29:40.358Z,5.70
2023-01-12T03:32:09.599Z,5.60
2023-01-12T03:34:38.862Z,5.60
2023-01-12T03:37:05.607Z,5.70
2023-01-12T03:39:43.735Z,5.70
2023-01-12T03:42:23.113Z,5.60
2023-01-12T03:45:15.824Z,5.50
2023-01-12T03:47:42.933Z,5.60
2023-01-12T03:50:17.181Z,5.70
2023-01-12T03:52:44.056Z,5.70
2023-01-12T03:55:13.157Z,5.80
2023-01-12T03:57:42.583Z,5.80
2023-01-12T04:00:10.806Z,5.90
2023-01-12T04:02:39.759Z,5.80
2023-01-12T04:05:07.458Z,5.80
2023-01-12T04:07:34.284Z,5.70
2023-01-12T04:10:01.142Z,5.60
2023-01-12T04:12:30.278Z,5.60
2023-01-12T04:15:01.754Z,5.60
2023-01-12T04:17:29.286Z,5.60
2023-01-12T04:19:58.579Z,5.70
2023-01-12T04:22:45.628Z,5.70
2023-01-12T04:25:22.698Z,5.80
2023-01-12T04:28:02.325Z,5.80
2023-01-12T04:30:32.581Z,5.80
2023-01-12T04:32:59.501Z,5.80
2023-01-12T04:35:26.571Z,5.80
2023-01-12T04:37:53.641Z,5.80
2023-01-12T04:40:20.708Z,5.90
2023-01-12T04:43:01.034Z,5.90
2023-01-12T04:45:28.779Z,5.80
2023-01-12T04:47:55.691Z,5.90
2023-01-12T04:50:24.877Z,5.90
2023-01-12T04:52:53.868Z,6.00
2023-01-12T04:55:20.737Z,6.00
2023-01-12T04:57:49.932Z,6.00
2023-01-12T05:00:17.102Z,6.00
2023-01-12T05:02:46.444Z,6.00
2023-01-12T05:05:13.239Z,6.10
2023-01-12T05:08:02.655Z,6.20
2023-01-12T05:10:30.088Z,6.20
2023-01-12T05:12:57.039Z,6.20
2023-01-12T05:15:23.983Z,6.20
2023-01-12T05:17:56.067Z,6.20
2023-01-12T05:20:25.105Z,6.30
2023-01-12T05:22:55.047Z,6.30
2023-01-12T05:25:21.809Z,6.30
2023-01-12T05:27:48.629Z,6.40
2023-01-12T05:30:15.866Z,6.40
2023-01-12T05:32:42.709Z,6.40
2023-01-12T05:35:12.642Z,6.40
2023-01-12T05:37:39.456Z,6.40
2023-01-12T05:40:09.605Z,6.50
2023-01-12T05:42:54.620Z,6.50
2023-01-12T05:45:21.385Z,6.50
2023-01-12T05:47:48.275Z,6.60
2023-01-12T05:50:17.344Z,6.60
2023-01-12T05:52:44.159Z,6.60
2023-01-12T05:55:15.250Z,6.60
2023-01-12T05:57:41.992Z,6.60
2023-01-12T06:00:11.936Z,6.70
2023-01-12T06:02:38.750Z,6.70
2023-01-12T06:05:10.973Z,6.80
2023-01-12T06:07:37.898Z,6.70
2023-01-12T06:10:05.690Z,6.80
2023-01-12T06:12:53.335Z,6.90
2023-01-12T06:15:22.630Z,6.90
2023-01-12T06:17:51.961Z,6.90
2023-01-12T06:20:18.849Z,6.80
2023-01-12T06:22:45.806Z,6.80
2023-01-12T06:25:12.674Z,6.70
2023-01-12T06:27:39.457Z,6.70
2023-01-12T06:30:07.520Z,6.70
2023-01-12T06:32:36.493Z,6.60
2023-01-12T06:35:17.846Z,6.70
2023-01-12T06:37:47.948Z,6.70
2023-01-12T06:40:16.953Z,6.70
2023-01-12T06:42:48.352Z,6.80
2023-01-12T06:45:15.238Z,6.80
2023-01-12T06:47:49.373Z,6.70
2023-01-12T06:50:16.530Z,6.70
2023-01-12T06:52:43.512Z,6.70
2023-01-12T06:55:12.478Z,6.70
2023-01-12T06:57:41.537Z,6.70
2023-01-12T07:00:14.008Z,6.70
2023-01-12T07:02:46.150Z,6.70
2023-01-12T07:05:12.891Z,6.80
2023-01-12T07:07:42.393Z,6.70
2023-01-12T07:10:10.636Z,6.80
2023-01-12T07:12:37.675Z,6.70
2023-01-12T07:15:05.004Z,6.80
2023-01-12T07:17:31.831Z,6.80
2023-01-12T07:19:58.602Z,6.80
2023-01-12T07:22:26.631Z,6.80
2023-01-12T07:24:53.462Z,6.80
2023-01-12T07:27:24.623Z,6.80
2023-01-12T07:29:51.816Z,6.80
2023-01-12T07:32:18.589Z,6.80
2023-01-12T07:34:47.488Z,6.80
2023-01-12T07:37:16.473Z,6.90
2023-01-12T07:39:47.904Z,7.00
2023-01-12T07:42:28.441Z,7.00
2023-01-12T07:44:55.275Z,7.00
2023-01-12T07:47:25.199Z,7.00
2023-01-12T07:49:52.001Z,7.00
2023-01-12T07:52:18.879Z,7.00
2023-01-12T07:54:47.866Z,7.10
2023-01-12T07:57:18.335Z,7.00
2023-01-12T07:59:45.304Z,7.10
2023-01-12T08:02:16.464Z,7.10
2023-01-12T08:04:46.445Z,7.10
2023-01-12T08:07:13.446Z,7.10
2023-01-12T08:09:40.304Z,7.10
2023-01-12T08:12:07.123Z,7.10
2023-01-12T08:14:40.552Z,7.10
2023-01-12T08:17:11.043Z,7.20
2023-01-12T08:19:41.372Z,7.20
2023-01-12T08:22:16.674Z,7.20
2023-01-12T08:24:51.084Z,7.20
2023-01-12T08:27:21.095Z,7.20
2023-01-12T08:29:48.902Z,7.20
2023-01-12T08:32:18.893Z,7.10
2023-01-12T08:34:49.530Z,7.20
2023-01-12T08:37:18.613Z,7.10
2023-01-12T08:39:45.520Z,7.10
2023-01-12T08:42:13.438Z,7.00
2023-01-12T08:44:42.722Z,7.00
2023-01-12T08:47:17.928Z,7.00
2023-01-12T08:49:46.222Z,7.00
2023-01-12T08:52:13.878Z,7.00
2023-01-12T08:54:43.191Z,7.00
2023-01-12T08:57:09.933Z,7.00
2023-01-12T08:59:36.796Z,7.00
2023-01-12T09:02:08.647Z,7.10
2023-01-12T09:04:35.717Z,7.20
2023-01-12T09:07:02.713Z,7.30
2023-01-12T09:09:29.456Z,7.40
2023-01-12T09:11:56.529Z,7.40
2023-01-12T09:14:23.382Z,7.40
2023-01-12T09:16:51.238Z,7.40
2023-01-12T09:19:18.156Z,7.50
2023-01-12T09:21:44.992Z,7.50
2023-01-12T09:24:12.105Z,7.60
2023-01-12T09:26:42.995Z,7.60
2023-01-12T09:29:12.854Z,7.60
2023-01-12T09:31:41.057Z,7.60
2023-01-12T09:34:10.081Z,7.60
2023-01-12T09:36:37.917Z,7.70
2023-01-12T09:39:06.082Z,7.70
2023-01-12T09:41:56.995Z,7.70
2023-01-12T09:44:56.964Z,7.80
2023-01-12T09:47:36.184Z,7.80
2023-01-12T09:50:11.289Z,7.80
2023-01-12T09:52:47.894Z,7.70
2023-01-12T09:55:24.203Z,7.70
2023-01-12T09:58:15.075Z,7.80
2023-01-12T10:00:44.192Z,7.80
2023-01-12T10:03:11.061Z,7.80
2023-01-12T10:05:58.154Z,7.90
2023-01-12T10:08:36.854Z,7.90
2023-01-12T10:11:30.472Z,7.90
2023-01-12T10:14:06.479Z,8.00
2023-01-12T10:16:55.074Z,7.90
2023-01-12T10:19:53.946Z,7.90
2023-01-12T10:22:39.627Z,7.90
2023-01-12T10:25:19.738Z,7.90
2023-01-12T10:27:48.215Z,8.00
2023-01-12T10:30:25.335Z,8.10
2023-01-12T10:32:52.395Z,8.10
2023-01-12T10:35:22.989Z,8.20
2023-01-12T10:37:54.493Z,8.30
2023-01-12T10:40:32.056Z,8.20
2023-01-12T10:43:23.952Z,8.30
2023-01-12T10:46:11.589Z,8.30
2023-01-12T10:48:39.711Z,8.20
2023-01-12T10:51:31.421Z,8.20
2023-01-12T10:54:10.881Z,8.20
2023-01-12T10:56:39.401Z,8.30
2023-01-12T10:59:17.671Z,8.30
2023-01-12T11:02:13.953Z,8.40
2023-01-12T11:04:52.375Z,8.30
2023-01-12T11:07:19.500Z,8.40
2023-01-12T11:09:48.504Z,8.40
2023-01-12T11:12:31.087Z,8.40
2023-01-12T11:15:15.045Z,8.50
2023-01-12T11:17:51.782Z,8.50
2023-01-12T11:20:44.214Z,8.50
2023-01-12T11:23:17.014Z,8.50
2023-01-12T11:25:47.697Z,8.50
2023-01-12T11:28:42.047Z,8.60
2023-01-12T11:31:22.928Z,8.60
2023-01-12T11:33:59.102Z,8.60
2023-01-12T11:36:34.774Z,8.60
2023-01-12T11:39:05.637Z,8.60
2023-01-12T11:41:40.200Z,8.60
2023-01-12T11:44:30.709Z,8.60
2023-01-12T11:47:04.585Z,8.70
2023-01-12T11:49:53.209Z,8.70
2023-01-12T11:52:20.045Z,8.70
2023-01-12T11:54:46.821Z,8.70
2023-01-12T11:57:46.141Z,8.70
2023-01-12T12:00:24.764Z,8.60
2023-01-12T12:03:10.067Z,8.60
2023-01-12T12:06:00.347Z,8.60
2023-01-12T12:08:33.753Z,8.70
2023-01-12T12:11:05.691Z,8.70
2023-01-12T12:13:56.859Z,8.80
2023-01-12T12:16:44.001Z,8.80
2023-01-12T12:19:16.675Z,8.80
2023-01-12T12:21:50.478Z,8.80
2023-01-12T12:24:39.170Z,8.80
2023-01-12T12:27:14.911Z,8.80
2023-01-12T12:30:06.337Z,8.80
2023-01-12T12:32:56.266Z,8.80
2023-01-12T12:35:32.657Z,8.80
2023-01-12T12:38:14.800Z,8.80
2023-01-12T12:41:10.247Z,8.90
2023-01-12T12:43:55.833Z,8.90
2023-01-12T12:46:44.640Z,9.00
2023-01-12T12:49:12.950Z,8.90
2023-01-12T12:51:40.328Z,8.90
2023-01-12T12:54:07.950Z,8.90
2023-01-12T12:56:35.525Z,8.90
2023-01-12T12:59:02.348Z,8.90
2023-01-12T13:01:31.381Z,9.00
2023-01-12T13:04:02.364Z,9.10
2023-01-12T13:06:31.914Z,9.10
2023-01-12T13:09:28.132Z,9.00
2023-01-12T13:11:59.210Z,8.90
2023-01-12T13:14:35.233Z,9.00
2023-01-12T13:17:20.406Z,9.00
2023-01-12T13:19:51.936Z,8.90
2023-01-12T13:22:32.365Z,8.90
2023-01-12T13:25:01.621Z,8.90
2023-01-12T13:27:55.787Z,8.80
2023-01-12T13:30:28.780Z,8.80
2023-01-12T13:33:14.709Z,8.70
2023-01-12T13:35:44.535Z,8.70
2023-01-12T13:38:23.413Z,8.70
2023-01-12T13:40:55.599Z,8.70
2023-01-12T13:43:25.570Z,8.70
2023-01-12T13:46:04.409Z,8.70
2023-01-12T13:48:35.383Z,8.70
2023-01-12T13:51:18.526Z,8.70
2023-01-12T13:53:56.916Z,8.70
2023-01-12T13:56:23.676Z,8.60
2023-01-12T13:58:50.908Z,8.60
2023-01-12T14:01:28.497Z,8.60
2023-01-12T14:03:58.445Z,8.60
2023-01-12T14:06:50.174Z,8.60
2023-01-12T14:09:22.481Z,8.60
2023-01-12T14:12:08.121Z,8.60
2023-01-12T14:15:03.138Z,8.60
2023-01-12T14:17:49.479Z,8.60
2023-01-12T14:20:27.309Z,8.50
2023-01-12T14:23:06.433Z,8.50
2023-01-12T14:25:33.194Z,8.50
2023-01-12T14:28:02.300Z,8.50
2023-01-12T14:30:31.480Z,8.50
2023-01-12T14:32:58.284Z,8.60
2023-01-12T14:35:27.940Z,8.60
2023-01-12T14:37:57.341Z,8.60
2023-01-12T14:40:28.908Z,8.50
2023-01-12T14:43:17.044Z,8.50
2023-01-12T14:46:17.255Z,8.50
2023-01-12T14:48:57.652Z,8.40
2023-01-12T14:51:38.816Z,8.30
2023-01-12T14:54:08.321Z,8.30
2023-01-12T14:56:42.340Z,8.30
2023-01-12T14:59:35.782Z,8.30
2023-01-12T15:02:14.471Z,8.30
2023-01-12T15:05:03.829Z,8.30
2023-01-12T15:07:52.133Z,8.30
2023-01-12T15:10:18.870Z,8.30
2023-01-12T15:12:53.096Z,8.30
2023-01-12T15:15:24.673Z,8.30
2023-01-12T15:18:11.928Z,8.20
2023-01-12T15:21:03.665Z,8.20
2023-01-12T15:23:53.527Z,8.20
2023-01-12T15:26:22.828Z,8.20
2023-01-12T15:28:49.951Z,8.20
2023-01-12T15:31:17.045Z,8.20
2023-01-12T15:33:43.889Z,8.20
2023-01-12T15:36:14.217Z,8.20
2023-01-12T15:38:40.990Z,8.20
2023-01-12T15:41:08.490Z,8.20
2023-01-12T15:43:37.377Z,8.10
2023-01-12T15:46:04.221Z,8.10
2023-01-12T15:48:31.056Z,8.10
2023-01-12T15:51:02.658Z,8.10
2023-01-12T15:53:30.094Z,8.10
2023-01-12T15:55:59.007Z,8.00
2023-01-12T15:58:25.906Z,7.90
2023-01-12T16:00:52.829Z,7.90
2023-01-12T16:03:49.076Z,7.80
2023-01-12T16:06:06.693Z,7.70
2023-01-12T16:08:35.987Z,7.70
2023-01-12T16:11:09.710Z,7.60
2023-01-12T16:13:36.564Z,7.60
2023-01-12T16:16:03.644Z,7.60
2023-01-12T16:18:30.791Z,7.50
2023-01-12T16:20:58.497Z,7.50
2023-01-12T16:23:27.517Z,7.50
2023-01-12T16:25:58.181Z,7.60
2023-01-12T16:28:25.548Z,7.60
2023-01-12T16:30:52.973Z,7.60
2023-01-12T16:33:19.913Z,7.50
2023-01-12T16:35:49.785Z,7.50
2023-01-12T16:38:16.979Z,7.40
2023-01-12T16:40:45.031Z,7.50
2023-01-12T16:43:12.060Z,7.40
2023-01-12T16:45:44.297Z,7.40
2023-01-12T16:48:11.083Z,7.30
2023-01-12T16:50:41.112Z,7.30
2023-01-12T16:53:10.503Z,7.30
2023-01-12T16:55:38.214Z,7.30
2023-01-12T16:58:05.250Z,7.30
2023-01-12T17:00:33.436Z,7.30
2023-01-12T17:03:02.623Z,7.30
2023-01-12T17:05:29.870Z,7.20
2023-01-12T17:07:56.803Z,7.30
2023-01-12T17:10:23.840Z,7.30
2023-01-12T17:12:55.570Z,7.20
2023-01-12T17:15:26.735Z,7.20
2023-01-12T17:17:55.065Z,7.20
2023-01-12T17:20:21.874Z,7.20
2023-01-12T17:22:51.101Z,7.20
2023-01-12T17:25:18.022Z,7.10
2023-01-12T17:27:48.309Z,7.10
2023-01-12T17:30:15.408Z,7.10
2023-01-12T17:32:44.700Z,7.10
2023-01-12T17:35:14.542Z,7.10
2023-01-12T17:37:46.045Z,7.10
2023-01-12T17:40:12.909Z,7.10
2023-01-12T17:42:58.126Z,7.10
2023-01-12T17:45:25.318Z,7.10
2023-01-12T17:47:52.182Z,7.10
2023-01-12T17:50:19.036Z,7.00
2023-01-12T17:52:45.836Z,7.00
2023-01-12T17:55:12.825Z,7.00
2023-01-12T17:57:39.646Z,6.90
2023-01-12T18:00:09.121Z,7.00
2023-01-12T18:02:36.365Z,6.90
2023-01-12T18:05:03.302Z,6.90
2023-01-12T18:07:32.121Z,6.90
2023-01-12T18:09:58.938Z,6.90
2023-01-12T18:12:27.418Z,6.80
2023-01-12T18:14:57.100Z,6.80
2023-01-12T18:17:26.135Z,6.80
2023-01-12T18:19:52.943Z,6.80
2023-01-12T18:22:19.727Z,6.70
2023-01-12T18:24:46.496Z,6.70
2023-01-12T18:27:13.287Z,6.70
2023-01-12T18:29:40.107Z,6.70
2023-01-12T18:32:06.970Z,6.80
2023-01-12T18:34:33.853Z,6.80
2023-01-12T18:37:01.139Z,6.80
2023-01-12T18:39:27.977Z,6.80
2023-01-12T18:42:13.260Z,6.80
2023-01-12T18:44:40.122Z,6.80
2023-01-12T18:47:25.382Z,6.80
2023-01-12T18:49:57.500Z,6.80
2023-01-12T18:52:42.765Z,6.90
2023-01-12T18:55:09.628Z,6.90
2023-01-12T18:57:36.406Z,6.90
2023-01-12T19:00:16.666Z,6.90
2023-01-12T19:02:43.880Z,6.90
2023-01-12T19:05:17.178Z,6.80
2023-01-12T19:08:03.367Z,6.80
2023-01-12T19:10:35.446Z,6.80
2023-01-12T19:13:21.053Z,6.70
2023-01-12T19:16:08.499Z,6.70
2023-01-12T19:18:38.571Z,6.70
2023-01-12T19:21:26.641Z,6.70
2023-01-12T19:24:11.808Z,6.70
2023-01-12T19:26:57.370Z,6.70
2023-01-12T19:29:24.137Z,6.70
2023-01-12T19:31:51.021Z,6.70
2023-01-12T19:34:18.830Z,6.60
2023-01-12T19:36:47.779Z,6.60
2023-01-12T19:39:25.731Z,6.70
2023-01-12T19:42:11.203Z,6.70
2023-01-12T19:44:40.427Z,6.80
2023-01-12T19:47:07.299Z,6.90
2023-01-12T19:49:34.129Z,6.90
2023-01-12T19:52:00.888Z,6.90
2023-01-12T19:54:29.398Z,7.00
2023-01-12T19:56:58.383Z,6.90
2023-01-12T19:59:25.264Z,6.90
2023-01-12T20:01:53.944Z,6.90
2023-01-12T20:04:21.167Z,6.90
2023-01-12T20:06:48.005Z,6.90
2023-01-12T20:09:14.824Z,6.90
2023-01-12T20:11:43.720Z,6.90
2023-01-12T20:14:10.665Z,6.80
2023-01-12T20:16:37.446Z,6.70
2023-01-12T20:19:08.678Z,6.80
2023-01-12T20:21:35.466Z,6.80
2023-01-12T20:24:02.212Z,6.80
2023-01-12T20:26:28.984Z,6.80
2023-01-12T20:28:57.897Z,6.80
2023-01-12T20:31:24.694Z,6.70
2023-01-12T20:33:51.488Z,6.80
2023-01-12T20:36:20.722Z,6.80
2023-01-12T20:38:47.631Z,6.80
2023-01-12T20:41:14.412Z,6.80
2023-01-12T20:43:41.159Z,6.70
2023-01-12T20:46:11.849Z,6.80
2023-01-12T20:48:43.757Z,6.90
2023-01-12T20:51:11.706Z,6.90
2023-01-12T20:53:38.505Z,6.90
2023-01-12T20:56:05.685Z,6.90
2023-01-12T20:58:32.511Z,6.90
2023-01-12T21:00:59.400Z,6.80
2023-01-12T21:03:26.293Z,6.90
2023-01-12T21:05:53.060Z,6.90
2023-01-12T21:08:20.158Z,6.80
2023-01-12T21:10:52.586Z,6.80
2023-01-12T21:13:22.107Z,7.00
2023-01-12T21:15:48.873Z,7.00
2023-01-12T21:18:15.665Z,7.00
2023-01-12T21:20:43.108Z,7.00
2023-01-12T21:23:09.954Z,6.90
2023-01-12T21:25:43.901Z,7.00
2023-01-12T21:28:10.986Z,7.00
2023-01-12T21:30:40.433Z,7.00
2023-01-12T21:33:07.214Z,7.10
2023-01-12T21:35:34.063Z,7.10
2023-01-12T21:38:00.880Z,7.00
2023-01-12T21:40:27.646Z,7.00
2023-01-12T21:43:09.395Z,7.00
2023-01-12T21:45:36.920Z,7.00
2023-01-12T21:48:06.954Z,7.00
2023-01-12T21:50:33.909Z,6.90
2023-01-12T21:53:02.636Z,7.00
2023-01-12T21:55:30.136Z,7.00
2023-01-12T21:57:56.972Z,7.00
2023-01-12T22:00:26.289Z,6.90
2023-01-12T22:02:56.143Z,7.00
2023-01-12T22:05:23.624Z,7.00
2023-01-12T22:07:50.801Z,7.10
2023-01-12T22:10:20.146Z,7.10
2023-01-12T22:12:56.994Z,7.10
2023-01-12T22:15:24.428Z,7.10
2023-01-12T22:17:53.639Z,7.10
2023-01-12T22:20:21.015Z,7.10
2023-01-12T22:22:49.987Z,7.10
2023-01-12T22:25:19.287Z,7.10
2023-01-12T22:27:46.329Z,7.10
2023-01-12T22:30:16.794Z,7.10
2023-01-12T22:32:43.800Z,7.10
2023-01-12T22:35:10.846Z,7.00
2023-01-12T22:37:37.935Z,7.00
2023-01-12T22:40:06.089Z,7.00
2023-01-12T22:42:51.640Z,7.00
2023-01-12T22:45:20.695Z,7.00
2023-01-12T22:47:54.407Z,7.00
2023-01-12T22:50:21.675Z,7.00
2023-01-12T22:52:52.672Z,7.00
2023-01-12T22:55:20.553Z,7.00
2023-01-12T22:57:47.395Z,7.00
2023-01-12T23:00:18.656Z,7.00
2023-01-12T23:03:00.668Z,7.00
2023-01-12T23:05:32.564Z,7.00
2023-01-12T23:07:59.588Z,6.90
2023-01-12T23:10:26.462Z,6.90
2023-01-12T23:13:11.817Z,6.90
2023-01-12T23:15:42.032Z,6.90
2023-01-12T23:18:09.059Z,6.90
2023-01-12T23:20:36.268Z,7.00
2023-01-12T23:23:03.668Z,7.00
2023-01-12T23:25:32.738Z,7.10
2023-01-12T23:27:59.886Z,7.10
2023-01-12T23:30:30.599Z,7.20
2023-01-12T23:33:00.832Z,7.10
2023-01-12T23:35:27.891Z,7.20
2023-01-12T23:37:57.185Z,7.20
2023-01-12T23:40:23.978Z,7.10
2023-01-12T23:42:53.190Z,7.20
2023-01-12T23:45:20.045Z,7.10
2023-01-12T23:47:50.136Z,7.20
2023-01-12T23:50:17.168Z,7.20
2023-01-12T23:52:43.960Z,7.30
2023-01-12T23:55:13.290Z,7.30
2023-01-12T23:57:45.258Z,7.20
